createdAt,value
2023-05-19T00:02:27.374Z,99466.47
2023-05-19T00:04:55.114Z,99463.88
2023-05-19T00:07:26.159Z,99464.56
2023-05-19T00:09:53.181Z,99454.59
2023-05-19T00:12:20.189Z,99457.53
2023-05-19T00:14:47.135Z,99460.72
2023-05-19T00:17:14.463Z,99457.78
2023-05-19T00:19:41.239Z,99465.59
2023-05-19T00:22:07.926Z,99456.91
2023-05-19T00:24:34.825Z,99436.84
2023-05-19T00:27:01.572Z,99477.31
2023-05-19T00:29:29.327Z,99459.91
2023-05-19T00:31:56.744Z,99472.09
2023-05-19T00:34:23.492Z,99467.63
2023-05-19T00:36:50.735Z,99465.19
2023-05-19T00:39:17.545Z,99463.72
2023-05-19T00:41:44.293Z,99465.59
2023-05-19T00:44:10.992Z,99476.00
2023-05-19T00:46:38.238Z,99468.47
2023-05-19T00:49:05.014Z,99470.63
2023-05-19T00:51:32.265Z,99478.03
2023-05-19T00:53:59.257Z,99472.28
2023-05-19T00:56:26.604Z,99480.41
2023-05-19T00:58:54.942Z,99479.84
2023-05-19T01:01:22.485Z,99480.34
2023-05-19T01:03:49.678Z,99466.25
2023-05-19T01:06:19.456Z,99485.03
2023-05-19T01:08:46.526Z,99485.28
2023-05-19T01:11:13.302Z,99484.00
2023-05-19T01:13:42.085Z,99468.06
2023-05-19T01:16:47.389Z,99480.81
2023-05-19T01:19:23.254Z,99476.03
2023-05-19T01:22:13.301Z,99474.09
2023-05-19T01:25:25.779Z,99467.41
2023-05-19T01:28:01.193Z,99472.44
2023-05-19T01:30:56.821Z,99470.00
2023-05-19T01:33:24.413Z,99468.28
2023-05-19T01:35:53.554Z,99469.94
2023-05-19T01:38:21.525Z,99475.88
2023-05-19T01:40:50.182Z,99473.84
2023-05-19T01:43:20.855Z,99467.97
2023-05-19T01:45:49.032Z,99473.75
2023-05-19T01:48:16.808Z,99474.91
2023-05-19T01:50:43.965Z,99477.66
2023-05-19T01:53:11.191Z,99470.44
2023-05-19T01:55:48.272Z,99481.00
2023-05-19T01:58:15.131Z,99477.59
2023-05-19T02:00:58.343Z,99475.72
2023-05-19T02:03:43.438Z,99478.06
2023-05-19T02:06:32.860Z,99482.28
2023-05-19T02:09:18.417Z,99482.38
2023-05-19T02:12:06.406Z,99482.38
2023-05-19T02:14:40.790Z,99489.19
2023-05-19T02:17:08.886Z,99481.31
2023-05-19T02:19:40.027Z,99500.88
2023-05-19T02:22:07.222Z,99500.66
2023-05-19T02:24:33.948Z,99495.69
2023-05-19T02:27:01.044Z,99499.03
2023-05-19T02:29:27.778Z,99511.59
2023-05-19T02:31:54.617Z,99515.69
2023-05-19T02:34:21.448Z,99518.03
2023-05-19T02:36:50.120Z,99517.97
2023-05-19T02:39:16.856Z,99518.09
2023-05-19T02:41:43.611Z,99512.72
2023-05-19T02:44:10.384Z,99508.44
2023-05-19T02:46:37.103Z,99524.34
2023-05-19T02:49:03.971Z,99524.09
2023-05-19T02:51:30.808Z,99525.91
2023-05-19T02:53:57.584Z,99523.72
2023-05-19T02:56:24.394Z,99541.59
2023-05-19T02:58:52.838Z,99537.97
2023-05-19T03:01:21.400Z,99546.66
2023-05-19T03:03:48.269Z,99550.47
2023-05-19T03:06:15.679Z,99543.06
2023-05-19T03:08:42.577Z,99553.38
2023-05-19T03:11:09.441Z,99554.66
2023-05-19T03:13:36.287Z,99552.47
2023-05-19T03:16:03.627Z,99548.88
2023-05-19T03:18:30.709Z,99565.63
2023-05-19T03:20:57.705Z,99579.38
2023-05-19T03:23:24.438Z,99574.25
2023-05-19T03:25:51.252Z,99578.84
2023-05-19T03:28:18.015Z,99591.59
2023-05-19T03:30:44.760Z,99594.59
2023-05-19T03:33:12.104Z,99591.09
2023-05-19T03:35:39.023Z,99593.72
2023-05-19T03:38:05.765Z,99592.16
2023-05-19T03:40:32.675Z,99598.06
2023-05-19T03:43:01.178Z,99597.56
2023-05-19T03:45:28.715Z,99605.34
2023-05-19T03:47:55.659Z,99603.41
2023-05-19T03:50:22.997Z,99604.03
2023-05-19T03:52:49.865Z,99609.50
2023-05-19T03:55:16.676Z,99603.97
2023-05-19T03:57:44.512Z,99593.59
2023-05-19T04:00:12.387Z,99602.72
2023-05-19T04:02:39.477Z,99592.81
2023-05-19T04:05:07.320Z,99590.94
2023-05-19T04:07:34.130Z,99594.28
2023-05-19T04:10:00.843Z,99600.91
2023-05-19T04:12:27.608Z,99597.97
2023-05-19T04:14:54.328Z,99603.75
2023-05-19T04:17:21.769Z,99614.19
2023-05-19T04:19:48.567Z,99611.50
2023-05-19T04:22:15.275Z,99614.47
2023-05-19T04:24:41.939Z,99616.09
2023-05-19T04:27:12.030Z,99610.25
2023-05-19T04:29:40.106Z,99615.63
2023-05-19T04:32:07.940Z,99607.13
2023-05-19T04:34:35.500Z,99609.84
2023-05-19T04:37:02.820Z,99594.94
2023-05-19T04:39:29.484Z,99607.47
2023-05-19T04:41:56.797Z,99602.13
2023-05-19T04:44:23.662Z,99613.03
2023-05-19T04:46:54.319Z,99614.44
2023-05-19T04:49:21.339Z,99613.81
2023-05-19T04:51:50.579Z,99614.53
2023-05-19T04:54:18.200Z,99604.16
2023-05-19T04:56:44.946Z,99624.03
2023-05-19T04:59:11.680Z,99621.03
2023-05-19T05:01:41.186Z,99629.84
2023-05-19T05:04:07.975Z,99613.44
2023-05-19T05:06:34.679Z,99624.38
2023-05-19T05:09:01.411Z,99616.09
2023-05-19T05:11:28.506Z,99604.91
2023-05-19T05:13:58.217Z,99633.78
2023-05-19T05:16:25.997Z,99629.97
2023-05-19T05:18:53.267Z,99629.53
2023-05-19T05:21:20.590Z,99626.09
2023-05-19T05:23:47.676Z,99637.84
2023-05-19T05:26:23.348Z,99642.63
2023-05-19T05:28:50.624Z,99644.84
2023-05-19T05:31:17.379Z,99643.25
2023-05-19T05:33:44.804Z,99650.69
2023-05-19T05:36:11.589Z,99645.63
2023-05-19T05:38:38.275Z,99650.50
2023-05-19T05:41:05.070Z,99659.22
2023-05-19T05:43:31.822Z,99651.34
2023-05-19T05:45:58.856Z,99667.38
2023-05-19T05:48:26.058Z,99672.38
2023-05-19T05:50:53.211Z,99666.19
2023-05-19T05:53:21.756Z,99681.53
2023-05-19T05:55:49.275Z,99681.81
2023-05-19T05:58:17.097Z,99680.34
2023-05-19T06:00:44.132Z,99689.28
2023-05-19T06:03:11.586Z,99696.88
2023-05-19T06:05:38.789Z,99698.19
2023-05-19T06:08:06.134Z,99702.94
2023-05-19T06:10:33.519Z,99699.97
2023-05-19T06:13:00.492Z,99711.34
2023-05-19T06:15:27.212Z,99718.91
2023-05-19T06:17:54.862Z,99726.50
2023-05-19T06:20:21.982Z,99721.34
2023-05-19T06:22:48.704Z,99707.56
2023-05-19T06:25:15.831Z,99713.22
2023-05-19T06:27:42.598Z,99713.19
2023-05-19T06:30:10.034Z,99719.31
2023-05-19T06:32:36.813Z,99715.72
2023-05-19T06:35:03.737Z,99712.38
2023-05-19T06:37:30.571Z,99720.38
2023-05-19T06:39:57.288Z,99725.09
2023-05-19T06:42:25.347Z,99709.69
2023-05-19T06:44:53.205Z,99724.19
2023-05-19T06:47:19.976Z,99728.50
2023-05-19T06:49:46.704Z,99726.81
2023-05-19T06:52:13.389Z,99730.66
2023-05-19T06:54:40.177Z,99731.19
2023-05-19T06:57:06.952Z,99732.22
2023-05-19T06:59:33.787Z,99724.06
2023-05-19T07:02:02.481Z,99727.59
2023-05-19T07:04:29.272Z,99734.00
2023-05-19T07:06:55.966Z,99739.22
2023-05-19T07:09:22.743Z,99739.06
2023-05-19T07:11:49.526Z,99733.34
2023-05-19T07:14:16.254Z,99731.50
2023-05-19T07:16:43.078Z,99741.59
2023-05-19T07:19:09.885Z,99740.81
2023-05-19T07:21:36.613Z,99736.50
2023-05-19T07:24:03.447Z,99734.00
2023-05-19T07:26:30.225Z,99729.69
2023-05-19T07:28:57.939Z,99728.91
2023-05-19T07:31:24.916Z,99726.72
2023-05-19T07:33:54.370Z,99731.06
2023-05-19T07:36:22.565Z,99717.06
2023-05-19T07:38:49.375Z,99722.19
2023-05-19T07:41:16.153Z,99739.44
2023-05-19T07:43:43.238Z,99726.56
2023-05-19T07:46:10.051Z,99714.78
2023-05-19T07:48:37.177Z,99725.63
2023-05-19T07:51:04.067Z,99726.28
2023-05-19T07:53:30.902Z,99724.47
2023-05-19T07:55:58.788Z,99729.84
2023-05-19T07:58:25.697Z,99722.38
2023-05-19T08:00:53.404Z,99729.72
2023-05-19T08:03:20.903Z,99727.81
2023-05-19T08:05:47.973Z,99731.38
2023-05-19T08:08:16.869Z,99731.63
2023-05-19T08:10:43.846Z,99737.84
2023-05-19T08:13:10.628Z,99752.94
2023-05-19T08:15:37.917Z,99739.41
2023-05-19T08:18:05.473Z,99740.47
2023-05-19T08:20:32.962Z,99758.31
2023-05-19T08:23:00.114Z,99742.31
2023-05-19T08:25:26.895Z,99738.19
2023-05-19T08:27:53.589Z,99750.69
2023-05-19T08:30:20.620Z,99753.91
2023-05-19T08:32:48.818Z,99744.44
2023-05-19T08:35:15.700Z,99746.06
2023-05-19T08:37:42.441Z,99743.56
2023-05-19T08:40:16.324Z,99739.75
2023-05-19T08:42:43.791Z,99750.38
2023-05-19T08:45:11.143Z,99743.09
2023-05-19T08:47:38.040Z,99749.28
2023-05-19T08:50:08.019Z,99744.31
2023-05-19T08:52:52.506Z,99732.34
2023-05-19T08:55:41.956Z,99730.19
2023-05-19T08:58:09.239Z,99739.53
2023-05-19T09:00:36.762Z,99735.63
2023-05-19T09:03:17.468Z,99740.28
2023-05-19T09:05:46.790Z,99729.91
2023-05-19T09:08:13.879Z,99751.09
2023-05-19T09:10:41.010Z,99738.81
2023-05-19T09:13:07.841Z,99750.94
2023-05-19T09:15:36.983Z,99747.81
2023-05-19T09:18:14.423Z,99737.38
2023-05-19T09:20:43.471Z,99747.84
2023-05-19T09:23:17.544Z,99754.97
2023-05-19T09:25:48.620Z,99758.13
2023-05-19T09:28:16.054Z,99742.47
2023-05-19T09:30:42.761Z,99754.13
2023-05-19T09:33:10.255Z,99745.59
2023-05-19T09:35:37.299Z,99741.31
2023-05-19T09:38:04.103Z,99754.66
2023-05-19T09:40:32.811Z,99763.63
2023-05-19T09:42:59.640Z,99746.28
2023-05-19T09:45:28.466Z,99754.97
2023-05-19T09:47:55.314Z,99744.31
2023-05-19T09:50:22.717Z,99745.84
2023-05-19T09:52:50.408Z,99755.84
2023-05-19T09:55:18.696Z,99747.22
2023-05-19T09:57:45.660Z,99751.69
2023-05-19T10:00:17.310Z,99733.06
2023-05-19T10:02:46.276Z,99748.00
2023-05-19T10:05:20.505Z,99753.19
2023-05-19T10:07:51.622Z,99750.78
2023-05-19T10:10:22.117Z,99751.88
2023-05-19T10:12:49.954Z,99740.59
2023-05-19T10:15:18.060Z,99751.19
2023-05-19T10:17:45.774Z,99734.31
2023-05-19T10:20:14.598Z,99733.13
2023-05-19T10:22:42.514Z,99732.41
2023-05-19T10:25:10.115Z,99725.53
2023-05-19T10:27:46.452Z,99721.50
2023-05-19T10:30:22.065Z,99710.81
2023-05-19T10:32:49.627Z,99705.03
2023-05-19T10:35:43.435Z,99690.41
2023-05-19T10:41:35.125Z,99691.38
2023-05-19T10:44:12.845Z,99687.97
2023-05-19T10:46:41.462Z,99687.78
2023-05-19T10:49:08.703Z,99691.38
2023-05-19T10:51:36.317Z,99700.28
2023-05-19T10:54:04.198Z,99767.16
2023-05-19T10:56:36.410Z,99755.16
2023-05-19T10:59:03.890Z,99763.06
2023-05-19T11:01:33.339Z,99775.06
2023-05-19T11:04:14.116Z,99790.34
2023-05-19T11:06:41.413Z,99812.03
2023-05-19T11:09:28.337Z,99835.91
2023-05-19T11:12:03.917Z,99812.31
2023-05-19T11:14:31.803Z,99792.03
2023-05-19T11:16:59.979Z,99796.59
2023-05-19T11:19:31.990Z,99790.06
2023-05-19T11:22:12.938Z,99786.72
2023-05-19T11:24:53.528Z,99760.25
2023-05-19T11:27:33.933Z,99747.69
2023-05-19T11:30:02.445Z,99731.50
2023-05-19T11:32:30.749Z,99728.22
2023-05-19T11:34:58.267Z,99726.00
2023-05-19T11:37:25.389Z,99715.19
2023-05-19T11:39:53.119Z,99706.53
2023-05-19T11:42:20.144Z,99700.16
2023-05-19T11:44:47.006Z,99683.59
2023-05-19T11:47:14.970Z,99688.59
2023-05-19T11:49:46.103Z,99674.13
2023-05-19T11:52:13.095Z,99663.41
2023-05-19T11:54:41.943Z,99653.03
2023-05-19T11:57:14.213Z,99619.84
2023-05-19T11:59:45.512Z,99649.06
2023-05-19T12:02:20.362Z,99647.91
2023-05-19T12:04:49.555Z,99651.78
2023-05-19T12:07:20.414Z,99649.22
2023-05-19T12:09:47.972Z,99642.28
2023-05-19T12:12:21.736Z,99635.94
2023-05-19T12:14:51.549Z,99636.44
2023-05-19T12:17:20.578Z,99637.88
2023-05-19T12:19:49.121Z,99633.94
2023-05-19T12:22:17.188Z,99646.97
2023-05-19T12:24:46.149Z,99653.22
2023-05-19T12:27:22.977Z,99674.47
2023-05-19T12:29:55.024Z,99684.09
2023-05-19T12:32:25.944Z,99695.88
2023-05-19T12:34:53.194Z,99697.56
2023-05-19T12:37:20.162Z,99710.28
2023-05-19T12:39:48.897Z,99703.22
2023-05-19T12:42:16.413Z,99709.81
2023-05-19T12:44:48.226Z,99703.94
2023-05-19T12:47:16.905Z,99699.13
2023-05-19T12:49:56.933Z,99702.66
2023-05-19T12:52:24.175Z,99692.41
2023-05-19T12:54:59.056Z,99699.75
2023-05-19T12:57:26.560Z,99712.81
2023-05-19T12:59:53.927Z,99722.94
2023-05-19T13:02:21.432Z,99726.63
2023-05-19T13:04:48.501Z,99730.09
2023-05-19T13:07:15.207Z,99732.38
2023-05-19T13:09:42.260Z,99727.81
2023-05-19T13:12:09.118Z,99737.81
2023-05-19T13:14:35.810Z,99743.22
2023-05-19T13:17:03.353Z,99743.34
2023-05-19T13:19:30.204Z,99753.97
2023-05-19T13:21:57.436Z,99754.19
2023-05-19T13:24:24.274Z,99753.94
2023-05-19T13:26:51.416Z,99760.38
2023-05-19T13:29:18.967Z,99757.03
2023-05-19T13:31:45.828Z,99753.81
2023-05-19T13:34:12.536Z,99754.28
2023-05-19T13:36:39.308Z,99749.53
2023-05-19T13:39:06.099Z,99749.94
2023-05-19T13:41:33.003Z,99751.34
2023-05-19T13:43:59.811Z,99752.06
2023-05-19T13:46:40.623Z,99752.00
2023-05-19T13:49:10.541Z,99759.78
2023-05-19T13:51:37.703Z,99778.94
2023-05-19T13:54:05.147Z,99764.44
2023-05-19T13:56:32.082Z,99747.66
2023-05-19T13:58:59.188Z,99739.84
2023-05-19T14:01:25.882Z,99732.06
2023-05-19T14:03:53.223Z,99721.06
2023-05-19T14:06:19.957Z,99721.63
2023-05-19T14:08:46.712Z,99723.47
2023-05-19T14:11:21.741Z,99731.63
2023-05-19T14:13:53.102Z,99733.25
2023-05-19T14:16:22.094Z,99732.97
2023-05-19T14:18:49.496Z,99740.75
2023-05-19T14:21:16.276Z,99744.53
2023-05-19T14:23:43.012Z,99744.75
2023-05-19T14:26:09.788Z,99753.97
2023-05-19T14:28:36.503Z,99766.28
2023-05-19T14:31:03.351Z,99764.91
2023-05-19T14:33:34.939Z,99760.38
2023-05-19T14:36:02.355Z,99755.59
2023-05-19T14:38:29.533Z,99756.66
2023-05-19T14:40:56.444Z,99774.47
2023-05-19T14:43:23.205Z,99764.53
2023-05-19T14:45:50.432Z,99768.59
2023-05-19T14:48:17.731Z,99760.53
2023-05-19T14:50:44.720Z,99762.72
2023-05-19T14:53:11.596Z,99763.53
2023-05-19T14:55:38.276Z,99768.44
2023-05-19T14:58:13.046Z,99758.63
2023-05-19T15:00:51.720Z,99751.59
2023-05-19T15:03:18.766Z,99748.88
2023-05-19T15:05:45.848Z,99747.50
2023-05-19T15:08:12.604Z,99736.19
2023-05-19T15:10:39.238Z,99736.19
2023-05-19T15:13:05.877Z,99740.53
2023-05-19T15:15:32.644Z,99740.81
2023-05-19T15:17:59.341Z,99746.19
2023-05-19T15:20:28.029Z,99747.31
2023-05-19T15:22:56.098Z,99751.34
2023-05-19T15:25:22.727Z,99758.38
2023-05-19T15:27:49.447Z,99758.38
2023-05-19T15:30:16.354Z,99760.53
2023-05-19T15:32:42.996Z,99762.44
2023-05-19T15:35:09.953Z,99757.28
2023-05-19T15:37:36.658Z,99769.19
2023-05-19T15:40:04.465Z,99760.53
2023-05-19T15:42:31.449Z,99773.03
2023-05-19T15:44:58.096Z,99783.53
2023-05-19T15:47:24.729Z,99787.03
2023-05-19T15:49:51.581Z,99787.56
2023-05-19T15:52:18.283Z,99797.31
2023-05-19T15:54:45.059Z,99801.69
2023-05-19T15:57:13.572Z,99806.00
2023-05-19T15:59:40.297Z,99802.78
2023-05-19T16:02:07.820Z,99798.44
2023-05-19T16:04:34.616Z,99803.84
2023-05-19T16:07:01.304Z,99795.69
2023-05-19T16:09:27.984Z,99795.97
2023-05-19T16:11:54.705Z,99795.94
2023-05-19T16:14:21.357Z,99790.75
2023-05-19T16:16:47.975Z,99786.38
2023-05-19T16:19:14.609Z,99785.81
2023-05-19T16:21:41.421Z,99796.06
2023-05-19T16:24:08.076Z,99806.81
2023-05-19T16:26:34.756Z,99811.66
2023-05-19T16:29:01.435Z,99814.34
2023-05-19T16:31:28.141Z,99821.03
2023-05-19T16:33:54.802Z,99814.00
2023-05-19T16:36:22.907Z,99806.16
2023-05-19T16:38:49.664Z,99810.16
2023-05-19T16:41:16.313Z,99808.38
2023-05-19T16:43:43.076Z,99811.59
2023-05-19T16:46:12.121Z,99822.09
2023-05-19T16:48:39.016Z,99817.53
2023-05-19T16:51:05.886Z,99827.75
2023-05-19T16:53:32.640Z,99833.72
2023-05-19T16:55:59.370Z,99818.47
2023-05-19T16:58:26.819Z,99822.53
2023-05-19T17:00:57.908Z,99818.19
2023-05-19T17:03:24.834Z,99821.09
2023-05-19T17:05:52.517Z,99827.84
2023-05-19T17:08:19.230Z,99827.53
2023-05-19T17:10:47.706Z,99813.38
2023-05-19T17:13:14.468Z,99822.22
2023-05-19T17:15:43.173Z,99822.56
2023-05-19T17:18:12.568Z,99824.41
2023-05-19T17:20:39.398Z,99823.28
2023-05-19T17:23:06.116Z,99823.66
2023-05-19T17:25:33.729Z,99837.03
2023-05-19T17:28:00.595Z,99833.66
2023-05-19T17:30:27.298Z,99835.78
2023-05-19T17:32:54.137Z,99838.25
2023-05-19T17:35:20.879Z,99844.13
2023-05-19T17:37:47.546Z,99840.22
2023-05-19T17:40:14.279Z,99848.75
2023-05-19T17:42:40.945Z,99840.31
2023-05-19T17:45:11.881Z,99858.34
2023-05-19T17:47:38.769Z,99848.06
2023-05-19T17:50:06.074Z,99837.34
2023-05-19T17:52:33.056Z,99845.13
2023-05-19T17:55:00.042Z,99846.56
2023-05-19T17:57:31.081Z,99835.38
2023-05-19T17:59:58.226Z,99843.53
2023-05-19T18:02:25.183Z,99844.91
2023-05-19T18:04:52.329Z,99842.38
2023-05-19T18:07:19.537Z,99848.94
2023-05-19T18:09:46.546Z,99849.41
2023-05-19T18:12:13.259Z,99856.63
2023-05-19T18:14:40.165Z,99849.66
2023-05-19T18:17:07.270Z,99853.50
2023-05-19T18:19:33.919Z,99848.31
2023-05-19T18:22:00.750Z,99853.69
2023-05-19T18:24:27.421Z,99854.72
2023-05-19T18:26:54.108Z,99852.13
2023-05-19T18:29:20.944Z,99851.88
2023-05-19T18:31:47.743Z,99863.91
2023-05-19T18:34:14.529Z,99862.63
2023-05-19T18:36:41.626Z,99855.16
2023-05-19T18:39:08.339Z,99853.59
2023-05-19T18:41:37.477Z,99854.25
2023-05-19T18:44:06.016Z,99856.03
2023-05-19T18:46:33.749Z,99858.16
2023-05-19T18:49:00.702Z,99857.28
2023-05-19T18:51:27.415Z,99842.56
2023-05-19T18:53:54.081Z,99859.72
2023-05-19T18:56:24.894Z,99838.50
2023-05-19T18:58:51.943Z,99857.59
2023-05-19T19:01:18.672Z,99862.78
2023-05-19T19:03:47.007Z,99863.03
2023-05-19T19:06:13.728Z,99863.09
2023-05-19T19:08:40.430Z,99861.38
2023-05-19T19:11:09.423Z,99867.84
2023-05-19T19:13:36.313Z,99868.28
2023-05-19T19:16:03.377Z,99861.06
2023-05-19T19:18:30.175Z,99852.84
2023-05-19T19:20:57.712Z,99861.06
2023-05-19T19:23:24.768Z,99858.38
2023-05-19T19:25:51.497Z,99865.28
2023-05-19T19:28:18.230Z,99864.81
2023-05-19T19:30:46.300Z,99867.91
2023-05-19T19:33:13.123Z,99875.97
2023-05-19T19:35:39.927Z,99874.16
2023-05-19T19:38:06.701Z,99868.75
2023-05-19T19:40:33.964Z,99875.88
2023-05-19T19:43:00.967Z,99881.97
2023-05-19T19:45:27.731Z,99884.72
2023-05-19T19:47:54.537Z,99887.06
2023-05-19T19:50:21.997Z,99874.22
2023-05-19T19:52:48.674Z,99870.53
2023-05-19T19:55:16.040Z,99877.06
2023-05-19T19:57:45.049Z,99868.09
2023-05-19T20:00:12.412Z,99886.16
2023-05-19T20:02:51.683Z,99867.69
2023-05-19T20:05:26.766Z,99864.44
2023-05-19T20:07:53.549Z,99875.66
2023-05-19T20:10:20.347Z,99881.69
2023-05-19T20:12:47.887Z,99867.03
2023-05-19T20:15:14.970Z,99873.78
2023-05-19T20:17:41.656Z,99878.75
2023-05-19T20:20:10.879Z,99885.53
2023-05-19T20:22:39.214Z,99882.75
2023-05-19T20:25:06.507Z,99880.28
2023-05-19T20:27:33.252Z,99879.50
2023-05-19T20:29:59.992Z,99877.44
2023-05-19T20:32:26.796Z,99886.66
2023-05-19T20:34:53.576Z,99868.38
2023-05-19T20:37:21.737Z,99881.19
2023-05-19T20:39:48.540Z,99832.47
2023-05-19T20:42:15.227Z,99873.84
2023-05-19T20:44:42.276Z,99881.88
2023-05-19T20:47:09.038Z,99877.59
2023-05-19T20:49:35.825Z,99876.66
2023-05-19T20:52:02.596Z,99878.53
2023-05-19T20:54:29.317Z,99886.94
2023-05-19T20:56:56.106Z,99879.38
2023-05-19T20:59:22.843Z,99885.25
2023-05-19T21:01:49.630Z,99887.78
2023-05-19T21:04:16.425Z,99888.25
2023-05-19T21:06:43.171Z,99888.41
2023-05-19T21:09:10.809Z,99892.84
2023-05-19T21:11:37.581Z,99886.59
2023-05-19T21:14:04.587Z,99887.13
2023-05-19T21:16:32.107Z,99879.66
2023-05-19T21:18:58.978Z,99878.97
2023-05-19T21:21:26.220Z,99873.13
2023-05-19T21:23:53.002Z,99882.94
2023-05-19T21:26:19.684Z,99886.53
2023-05-19T21:28:46.465Z,99881.66
2023-05-19T21:31:13.252Z,99885.03
2023-05-19T21:33:40.017Z,99887.72
2023-05-19T21:36:07.010Z,99886.66
2023-05-19T21:38:33.736Z,99885.94
2023-05-19T21:41:00.557Z,99883.72
2023-05-19T21:43:27.378Z,99885.97
2023-05-19T21:45:54.047Z,99879.63
2023-05-19T21:48:21.638Z,99878.22
2023-05-19T21:50:55.568Z,99873.53
2023-05-19T21:53:22.280Z,99875.84
2023-05-19T21:55:48.997Z,99872.41
2023-05-19T21:58:15.958Z,99878.25
2023-05-19T22:00:43.451Z,99876.13
2023-05-19T22:03:10.240Z,99874.25
2023-05-19T22:05:38.443Z,99861.31
2023-05-19T22:08:05.326Z,99858.38
2023-05-19T22:10:32.235Z,99869.16
2023-05-19T22:12:59.228Z,99862.97
2023-05-19T22:15:26.763Z,99865.50
2023-05-19T22:17:53.508Z,99868.94
2023-05-19T22:20:20.266Z,99864.50
2023-05-19T22:22:47.093Z,99867.31
2023-05-19T22:25:13.888Z,99868.88
2023-05-19T22:27:40.719Z,99862.78
2023-05-19T22:30:08.003Z,99862.94
2023-05-19T22:32:35.318Z,99871.22
2023-05-19T22:35:02.021Z,99870.38
2023-05-19T22:37:29.088Z,99873.91
2023-05-19T22:39:55.722Z,99870.16
2023-05-19T22:42:22.485Z,99879.50
2023-05-19T22:44:49.220Z,99871.91
2023-05-19T22:47:16.044Z,99873.31
2023-05-19T22:49:43.007Z,99854.66
2023-05-19T22:52:11.212Z,99865.13
2023-05-19T22:54:38.315Z,99862.94
2023-05-19T22:57:05.377Z,99849.19
2023-05-19T22:59:32.127Z,99834.16
2023-05-19T23:01:58.852Z,99849.41
2023-05-19T23:04:25.866Z,99846.72
2023-05-19T23:06:52.802Z,99847.22
2023-05-19T23:09:19.506Z,99849.50
2023-05-19T23:11:46.469Z,99837.75
2023-05-19T23:14:13.335Z,99838.91
2023-05-19T23:16:40.050Z,99832.19
2023-05-19T23:19:07.033Z,99828.53
2023-05-19T23:21:33.859Z,99817.25
2023-05-19T23:24:00.577Z,99814.00
2023-05-19T23:26:27.457Z,99808.59
2023-05-19T23:28:54.202Z,99811.19
2023-05-19T23:31:21.039Z,99804.88
2023-05-19T23:33:47.817Z,99803.13
2023-05-19T23:36:14.643Z,99809.09
2023-05-19T23:38:41.343Z,99801.38
2023-05-19T23:41:08.158Z,99811.53
2023-05-19T23:43:34.875Z,99814.34
2023-05-19T23:46:01.710Z,99807.81
2023-05-19T23:48:29.301Z,99804.06
2023-05-19T23:50:57.001Z,99800.69
2023-05-19T23:53:23.982Z,99805.16
2023-05-19T23:55:51.566Z,99792.19
2023-05-19T23:58:18.718Z,99808.16
